sensor_id;sensor_type;location;lat;lon;timestamp;temperature;humidity
37232;DHT22;23125;48.156;15.954;2023-03-23T00:01:28;11.60;50.80
37232;DHT22;23125;48.156;15.954;2023-03-23T00:03:57;11.50;50.90
37232;DHT22;23125;48.156;15.954;2023-03-23T00:06:26;11.50;50.90
37232;DHT22;23125;48.156;15.954;2023-03-23T00:08:54;11.50;50.90
37232;DHT22;23125;48.156;15.954;2023-03-23T00:11:27;11.50;51.10
37232;DHT22;23125;48.156;15.954;2023-03-23T00:13:58;11.50;51.10
37232;DHT22;23125;48.156;15.954;2023-03-23T00:16:28;11.50;51.10
37232;DHT22;23125;48.156;15.954;2023-03-23T00:19:16;11.40;51.10
37232;DHT22;23125;48.156;15.954;2023-03-23T00:21:45;11.40;51.10
37232;DHT22;23125;48.156;15.954;2023-03-23T00:24:14;11.30;51.10
37232;DHT22;23125;48.156;15.954;2023-03-23T00:26:44;11.30;51.20
37232;DHT22;23125;48.156;15.954;2023-03-23T00:29:21;11.20;51.20
37232;DHT22;23125;48.156;15.954;2023-03-23T00:31:49;11.20;51.30
37232;DHT22;23125;48.156;15.954;2023-03-23T00:34:20;11.20;51.40
37232;DHT22;23125;48.156;15.954;2023-03-23T00:36:49;11.10;51.50
37232;DHT22;23125;48.156;15.954;2023-03-23T00:39:16;11.10;51.40
37232;DHT22;23125;48.156;15.954;2023-03-23T00:41:44;11.10;51.60
37232;DHT22;23125;48.156;15.954;2023-03-23T00:44:11;11.00;51.60
37232;DHT22;23125;48.156;15.954;2023-03-23T00:46:46;11.00;51.60
37232;DHT22;23125;48.156;15.954;2023-03-23T00:49:19;10.90;51.70
37232;DHT22;23125;48.156;15.954;2023-03-23T00:51:45;10.90;51.90
37232;DHT22;23125;48.156;15.954;2023-03-23T00:54:11;10.90;51.90
37232;DHT22;23125;48.156;15.954;2023-03-23T00:56:38;10.90;51.90
37232;DHT22;23125;48.156;15.954;2023-03-23T00:59:05;10.90;52.00
37232;DHT22;23125;48.156;15.954;2023-03-23T01:01:31;10.90;51.90
37232;DHT22;23125;48.156;15.954;2023-03-23T01:04:01;10.80;51.90
37232;DHT22;23125;48.156;15.954;2023-03-23T01:06:34;10.80;52.00
37232;DHT22;23125;48.156;15.954;2023-03-23T01:09:02;10.80;52.10
37232;DHT22;23125;48.156;15.954;2023-03-23T01:11:28;10.80;52.10
37232;DHT22;23125;48.156;15.954;2023-03-23T01:13:54;10.70;52.10
37232;DHT22;23125;48.156;15.954;2023-03-23T01:16:21;10.80;52.30
37232;DHT22;23125;48.156;15.954;2023-03-23T01:18:47;10.60;52.20
37232;DHT22;23125;48.156;15.954;2023-03-23T01:21:15;10.60;52.30
37232;DHT22;23125;48.156;15.954;2023-03-23T01:23:43;10.60;52.30
37232;DHT22;23125;48.156;15.954;2023-03-23T01:26:14;10.60;52.30
37232;DHT22;23125;48.156;15.954;2023-03-23T01:28:41;10.60;52.40
37232;DHT22;23125;48.156;15.954;2023-03-23T01:31:11;10.60;52.40
37232;DHT22;23125;48.156;15.954;2023-03-23T01:33:38;10.50;52.40
37232;DHT22;23125;48.156;15.954;2023-03-23T01:36:07;10.50;52.40
37232;DHT22;23125;48.156;15.954;2023-03-23T01:38:34;10.50;52.50
37232;DHT22;23125;48.156;15.954;2023-03-23T01:41:01;10.50;52.60
37232;DHT22;23125;48.156;15.954;2023-03-23T01:43:27;10.40;52.50
37232;DHT22;23125;48.156;15.954;2023-03-23T01:45:54;10.40;52.60
37232;DHT22;23125;48.156;15.954;2023-03-23T01:48:24;10.40;52.60
37232;DHT22;23125;48.156;15.954;2023-03-23T01:50:56;10.30;52.60
37232;DHT22;23125;48.156;15.954;2023-03-23T01:53:28;10.30;52.60
37232;DHT22;23125;48.156;15.954;2023-03-23T01:55:57;10.30;52.70
37232;DHT22;23125;48.156;15.954;2023-03-23T01:58:27;10.30;52.90
37232;DHT22;23125;48.156;15.954;2023-03-23T02:00:54;10.30;53.00
37232;DHT22;23125;48.156;15.954;2023-03-23T02:03:21;10.20;52.80
37232;DHT22;23125;48.156;15.954;2023-03-23T02:05:49;10.20;52.90
37232;DHT22;23125;48.156;15.954;2023-03-23T02:08:17;10.10;52.90
37232;DHT22;23125;48.156;15.954;2023-03-23T02:10:43;10.10;52.90
37232;DHT22;23125;48.156;15.954;2023-03-23T02:13:11;10.10;53.00
37232;DHT22;23125;48.156;15.954;2023-03-23T02:15:39;10.10;53.00
37232;DHT22;23125;48.156;15.954;2023-03-23T02:18:18;10.00;53.00
37232;DHT22;23125;48.156;15.954;2023-03-23T02:23:33;9.90;53.10
37232;DHT22;23125;48.156;15.954;2023-03-23T02:35:20;9.80;53.40
37232;DHT22;23125;48.156;15.954;2023-03-23T02:37:52;9.80;53.50
37232;DHT22;23125;48.156;15.954;2023-03-23T02:40:27;9.80;53.60
37232;DHT22;23125;48.156;15.954;2023-03-23T02:42:57;9.70;53.70
37232;DHT22;23125;48.156;15.954;2023-03-23T02:45:27;9.80;53.80
37232;DHT22;23125;48.156;15.954;2023-03-23T02:47:55;9.80;53.80
37232;DHT22;23125;48.156;15.954;2023-03-23T02:50:27;9.80;53.80
37232;DHT22;23125;48.156;15.954;2023-03-23T02:52:55;9.80;53.80
37232;DHT22;23125;48.156;15.954;2023-03-23T02:55:25;9.80;53.80
37232;DHT22;23125;48.156;15.954;2023-03-23T02:57:52;9.80;53.90
37232;DHT22;23125;48.156;15.954;2023-03-23T03:00:20;9.80;54.00
37232;DHT22;23125;48.156;15.954;2023-03-23T03:02:49;9.80;53.90
37232;DHT22;23125;48.156;15.954;2023-03-23T03:05:31;9.80;54.00
37232;DHT22;23125;48.156;15.954;2023-03-23T03:08:24;9.80;54.00
37232;DHT22;23125;48.156;15.954;2023-03-23T03:11:05;9.70;53.90
37232;DHT22;23125;48.156;15.954;2023-03-23T03:13:53;9.70;54.00
37232;DHT22;23125;48.156;15.954;2023-03-23T03:16:33;9.70;54.10
37232;DHT22;23125;48.156;15.954;2023-03-23T03:19:09;9.70;54.20
37232;DHT22;23125;48.156;15.954;2023-03-23T03:21:45;9.70;54.30
37232;DHT22;23125;48.156;15.954;2023-03-23T03:24:15;9.70;54.30
37232;DHT22;23125;48.156;15.954;2023-03-23T03:26:45;9.70;54.30
37232;DHT22;23125;48.156;15.954;2023-03-23T03:29:25;9.70;54.30
37232;DHT22;23125;48.156;15.954;2023-03-23T03:31:53;9.60;54.30
37232;DHT22;23125;48.156;15.954;2023-03-23T03:34:22;9.60;54.30
37232;DHT22;23125;48.156;15.954;2023-03-23T03:36:51;9.60;54.40
37232;DHT22;23125;48.156;15.954;2023-03-23T03:39:19;9.60;54.50
37232;DHT22;23125;48.156;15.954;2023-03-23T03:41:47;9.60;54.50
37232;DHT22;23125;48.156;15.954;2023-03-23T03:44:13;9.60;54.50
37232;DHT22;23125;48.156;15.954;2023-03-23T03:46:39;9.60;54.50
37232;DHT22;23125;48.156;15.954;2023-03-23T03:49:07;9.60;54.60
37232;DHT22;23125;48.156;15.954;2023-03-23T03:51:35;9.60;54.70
37232;DHT22;23125;48.156;15.954;2023-03-23T03:54:02;9.60;54.70
37232;DHT22;23125;48.156;15.954;2023-03-23T03:56:28;9.60;54.80
37232;DHT22;23125;48.156;15.954;2023-03-23T03:58:54;9.60;54.80
37232;DHT22;23125;48.156;15.954;2023-03-23T04:01:21;9.60;54.80
37232;DHT22;23125;48.156;15.954;2023-03-23T04:03:51;9.60;54.90
37232;DHT22;23125;48.156;15.954;2023-03-23T04:06:18;9.60;54.90
37232;DHT22;23125;48.156;15.954;2023-03-23T04:08:44;9.60;54.90
37232;DHT22;23125;48.156;15.954;2023-03-23T04:11:13;9.60;54.90
37232;DHT22;23125;48.156;15.954;2023-03-23T04:13:41;9.60;55.00
37232;DHT22;23125;48.156;15.954;2023-03-23T04:16:07;9.60;55.00
37232;DHT22;23125;48.156;15.954;2023-03-23T04:18:35;9.60;55.10
37232;DHT22;23125;48.156;15.954;2023-03-23T04:21:02;9.60;55.10
37232;DHT22;23125;48.156;15.954;2023-03-23T04:23:29;9.60;55.20
37232;DHT22;23125;48.156;15.954;2023-03-23T04:25:57;9.60;55.20
37232;DHT22;23125;48.156;15.954;2023-03-23T04:28:26;9.60;55.20
37232;DHT22;23125;48.156;15.954;2023-03-23T04:30:53;9.60;55.20
37232;DHT22;23125;48.156;15.954;2023-03-23T04:33:24;9.60;55.20
37232;DHT22;23125;48.156;15.954;2023-03-23T04:35:52;9.60;55.30
37232;DHT22;23125;48.156;15.954;2023-03-23T04:38:20;9.60;55.40
37232;DHT22;23125;48.156;15.954;2023-03-23T04:40:48;9.60;55.40
37232;DHT22;23125;48.156;15.954;2023-03-23T04:43:21;9.50;55.40
37232;DHT22;23125;48.156;15.954;2023-03-23T04:45:54;9.50;55.50
37232;DHT22;23125;48.156;15.954;2023-03-23T04:48:29;9.50;55.50
37232;DHT22;23125;48.156;15.954;2023-03-23T04:51:00;9.60;55.60
37232;DHT22;23125;48.156;15.954;2023-03-23T04:53:28;9.60;55.60
37232;DHT22;23125;48.156;15.954;2023-03-23T04:55:54;9.60;55.60
37232;DHT22;23125;48.156;15.954;2023-03-23T04:58:20;9.60;55.60
37232;DHT22;23125;48.156;15.954;2023-03-23T05:00:47;9.50;55.70
37232;DHT22;23125;48.156;15.954;2023-03-23T05:03:17;9.50;55.80
37232;DHT22;23125;48.156;15.954;2023-03-23T05:05:44;9.60;55.90
37232;DHT22;23125;48.156;15.954;2023-03-23T05:08:21;9.60;56.00
37232;DHT22;23125;48.156;15.954;2023-03-23T05:10:57;9.60;56.00
37232;DHT22;23125;48.156;15.954;2023-03-23T05:13:24;9.60;56.10
37232;DHT22;23125;48.156;15.954;2023-03-23T05:15:51;9.60;56.20
37232;DHT22;23125;48.156;15.954;2023-03-23T05:18:17;9.70;56.30
37232;DHT22;23125;48.156;15.954;2023-03-23T05:20:43;9.70;56.30
37232;DHT22;23125;48.156;15.954;2023-03-23T05:23:12;9.80;56.40
37232;DHT22;23125;48.156;15.954;2023-03-23T05:25:39;9.80;56.40
37232;DHT22;23125;48.156;15.954;2023-03-23T05:28:09;9.80;56.40
37232;DHT22;23125;48.156;15.954;2023-03-23T05:30:38;9.80;56.40
37232;DHT22;23125;48.156;15.954;2023-03-23T05:33:05;9.90;56.50
37232;DHT22;23125;48.156;15.954;2023-03-23T05:35:31;10.00;56.60
37232;DHT22;23125;48.156;15.954;2023-03-23T05:37:57;10.00;57.20
37232;DHT22;23125;48.156;15.954;2023-03-23T05:40:23;10.10;56.80
37232;DHT22;23125;48.156;15.954;2023-03-23T05:42:51;10.10;56.80
37232;DHT22;23125;48.156;15.954;2023-03-23T05:45:18;10.20;56.90
37232;DHT22;23125;48.156;15.954;2023-03-23T05:47:44;10.20;56.90
37232;DHT22;23125;48.156;15.954;2023-03-23T05:50:11;10.30;57.50
37232;DHT22;23125;48.156;15.954;2023-03-23T05:52:39;10.40;57.10
37232;DHT22;23125;48.156;15.954;2023-03-23T05:55:06;10.60;57.30
37232;DHT22;23125;48.156;15.954;2023-03-23T05:57:34;10.60;57.40
37232;DHT22;23125;48.156;15.954;2023-03-23T06:00:00;10.60;57.50
37232;DHT22;23125;48.156;15.954;2023-03-23T06:02:31;10.80;57.70
37232;DHT22;23125;48.156;15.954;2023-03-23T06:04:57;10.90;57.80
37232;DHT22;23125;48.156;15.954;2023-03-23T06:07:24;11.00;58.00
37232;DHT22;23125;48.156;15.954;2023-03-23T06:09:50;11.10;58.10
37232;DHT22;23125;48.156;15.954;2023-03-23T06:12:16;11.30;58.30
37232;DHT22;23125;48.156;15.954;2023-03-23T06:14:47;11.40;58.20
37232;DHT22;23125;48.156;15.954;2023-03-23T06:17:16;11.60;58.30
37232;DHT22;23125;48.156;15.954;2023-03-23T06:19:45;11.70;58.30
37232;DHT22;23125;48.156;15.954;2023-03-23T06:22:12;11.80;58.20
37232;DHT22;23125;48.156;15.954;2023-03-23T06:24:39;11.90;58.30
37232;DHT22;23125;48.156;15.954;2023-03-23T06:27:05;12.10;58.40
37232;DHT22;23125;48.156;15.954;2023-03-23T06:29:30;12.20;58.50
37232;DHT22;23125;48.156;15.954;2023-03-23T06:31:59;12.40;58.50
37232;DHT22;23125;48.156;15.954;2023-03-23T06:34:25;12.50;58.50
37232;DHT22;23125;48.156;15.954;2023-03-23T06:36:51;12.60;58.50
37232;DHT22;23125;48.156;15.954;2023-03-23T06:39:18;12.80;58.70
37232;DHT22;23125;48.156;15.954;2023-03-23T06:41:44;12.90;58.70
37232;DHT22;23125;48.156;15.954;2023-03-23T06:44:10;13.00;58.80
37232;DHT22;23125;48.156;15.954;2023-03-23T06:46:40;13.20;58.70
37232;DHT22;23125;48.156;15.954;2023-03-23T06:49:06;13.30;58.50
37232;DHT22;23125;48.156;15.954;2023-03-23T06:51:32;13.40;58.50
37232;DHT22;23125;48.156;15.954;2023-03-23T06:53:58;13.50;58.40
37232;DHT22;23125;48.156;15.954;2023-03-23T06:56:24;13.60;58.40
37232;DHT22;23125;48.156;15.954;2023-03-23T06:58:50;13.70;58.30
37232;DHT22;23125;48.156;15.954;2023-03-23T07:01:16;13.80;58.20
37232;DHT22;23125;48.156;15.954;2023-03-23T07:03:43;13.90;58.20
37232;DHT22;23125;48.156;15.954;2023-03-23T07:06:10;14.00;58.20
37232;DHT22;23125;48.156;15.954;2023-03-23T07:08:36;14.10;58.10
37232;DHT22;23125;48.156;15.954;2023-03-23T07:11:03;14.20;58.10
37232;DHT22;23125;48.156;15.954;2023-03-23T07:13:29;14.30;58.20
37232;DHT22;23125;48.156;15.954;2023-03-23T07:15:55;14.40;58.20
37232;DHT22;23125;48.156;15.954;2023-03-23T07:18:21;14.50;58.40
37232;DHT22;23125;48.156;15.954;2023-03-23T07:20:51;14.60;58.40
37232;DHT22;23125;48.156;15.954;2023-03-23T07:23:18;14.70;58.50
37232;DHT22;23125;48.156;15.954;2023-03-23T07:25:44;14.90;58.60
37232;DHT22;23125;48.156;15.954;2023-03-23T07:28:12;15.00;58.70
37232;DHT22;23125;48.156;15.954;2023-03-23T07:30:38;15.20;58.70
37232;DHT22;23125;48.156;15.954;2023-03-23T07:33:06;15.30;58.80
37232;DHT22;23125;48.156;15.954;2023-03-23T07:35:32;15.50;58.70
37232;DHT22;23125;48.156;15.954;2023-03-23T07:37:59;15.70;58.60
37232;DHT22;23125;48.156;15.954;2023-03-23T07:40:26;15.90;58.60
37232;DHT22;23125;48.156;15.954;2023-03-23T07:42:55;16.10;58.50
37232;DHT22;23125;48.156;15.954;2023-03-23T07:45:21;16.30;58.60
37232;DHT22;23125;48.156;15.954;2023-03-23T07:47:48;16.50;59.30
37232;DHT22;23125;48.156;15.954;2023-03-23T07:50:14;16.80;58.80
37232;DHT22;23125;48.156;15.954;2023-03-23T07:52:40;17.00;58.40
37232;DHT22;23125;48.156;15.954;2023-03-23T07:55:11;17.30;58.00
37232;DHT22;23125;48.156;15.954;2023-03-23T07:57:46;17.50;57.40
37232;DHT22;23125;48.156;15.954;2023-03-23T08:00:17;17.60;56.70
37232;DHT22;23125;48.156;15.954;2023-03-23T08:02:56;17.70;56.00
37232;DHT22;23125;48.156;15.954;2023-03-23T08:05:23;17.80;55.60
37232;DHT22;23125;48.156;15.954;2023-03-23T08:07:52;17.80;55.20
37232;DHT22;23125;48.156;15.954;2023-03-23T08:10:20;17.80;54.90
37232;DHT22;23125;48.156;15.954;2023-03-23T08:12:51;17.90;54.70
37232;DHT22;23125;48.156;15.954;2023-03-23T08:15:18;17.90;54.60
37232;DHT22;23125;48.156;15.954;2023-03-23T08:17:44;17.90;54.60
37232;DHT22;23125;48.156;15.954;2023-03-23T08:20:12;18.00;54.90
37232;DHT22;23125;48.156;15.954;2023-03-23T08:22:39;18.10;55.00
37232;DHT22;23125;48.156;15.954;2023-03-23T08:25:07;18.30;55.40
37232;DHT22;23125;48.156;15.954;2023-03-23T08:27:34;18.40;55.10
37232;DHT22;23125;48.156;15.954;2023-03-23T08:30:00;18.70;55.50
37232;DHT22;23125;48.156;15.954;2023-03-23T08:32:26;19.00;55.70
37232;DHT22;23125;48.156;15.954;2023-03-23T08:34:53;19.40;56.00
37232;DHT22;23125;48.156;15.954;2023-03-23T08:37:19;19.90;56.00
37232;DHT22;23125;48.156;15.954;2023-03-23T08:39:45;20.40;55.80
37232;DHT22;23125;48.156;15.954;2023-03-23T08:42:11;21.00;55.20
37232;DHT22;23125;48.156;15.954;2023-03-23T08:44:37;21.50;54.60
37232;DHT22;23125;48.156;15.954;2023-03-23T08:47:04;21.90;53.80
37232;DHT22;23125;48.156;15.954;2023-03-23T08:49:32;22.40;53.10
37232;DHT22;23125;48.156;15.954;2023-03-23T08:52:00;23.00;52.50
37232;DHT22;23125;48.156;15.954;2023-03-23T08:54:25;23.40;51.70
37232;DHT22;23125;48.156;15.954;2023-03-23T08:56:52;23.80;50.70
37232;DHT22;23125;48.156;15.954;2023-03-23T08:59:18;24.20;49.70
37232;DHT22;23125;48.156;15.954;2023-03-23T09:01:44;24.50;49.30
37232;DHT22;23125;48.156;15.954;2023-03-23T09:04:10;24.90;48.40
37232;DHT22;23125;48.156;15.954;2023-03-23T09:06:36;25.30;47.50
37232;DHT22;23125;48.156;15.954;2023-03-23T09:09:03;25.70;46.60
37232;DHT22;23125;48.156;15.954;2023-03-23T09:11:36;26.00;46.00
37232;DHT22;23125;48.156;15.954;2023-03-23T09:14:03;26.30;44.90
37232;DHT22;23125;48.156;15.954;2023-03-23T09:16:29;26.50;44.30
37232;DHT22;23125;48.156;15.954;2023-03-23T09:18:55;26.80;43.90
37232;DHT22;23125;48.156;15.954;2023-03-23T09:21:24;27.00;43.30
37232;DHT22;23125;48.156;15.954;2023-03-23T09:23:51;27.40;42.70
37232;DHT22;23125;48.156;15.954;2023-03-23T09:26:17;27.70;42.30
37232;DHT22;23125;48.156;15.954;2023-03-23T09:28:43;28.00;41.20
37232;DHT22;23125;48.156;15.954;2023-03-23T09:31:11;28.20;40.50
37232;DHT22;23125;48.156;15.954;2023-03-23T09:33:38;28.30;39.80
37232;DHT22;23125;48.156;15.954;2023-03-23T09:36:05;28.50;39.30
37232;DHT22;23125;48.156;15.954;2023-03-23T09:38:33;28.80;38.80
37232;DHT22;23125;48.156;15.954;2023-03-23T09:46:34;29.40;36.50
37232;DHT22;23125;48.156;15.954;2023-03-23T09:49:12;29.50;36.00
37232;DHT22;23125;48.156;15.954;2023-03-23T09:51:51;29.70;35.90
37232;DHT22;23125;48.156;15.954;2023-03-23T09:54:26;30.00;35.50
37232;DHT22;23125;48.156;15.954;2023-03-23T09:56:54;30.30;35.00
37232;DHT22;23125;48.156;15.954;2023-03-23T10:02:15;30.40;33.70
37232;DHT22;23125;48.156;15.954;2023-03-23T10:04:48;30.60;33.70
37232;DHT22;23125;48.156;15.954;2023-03-23T10:07:17;30.80;33.00
37232;DHT22;23125;48.156;15.954;2023-03-23T10:09:46;31.00;32.60
37232;DHT22;23125;48.156;15.954;2023-03-23T10:12:34;31.00;32.30
37232;DHT22;23125;48.156;15.954;2023-03-23T10:18:02;31.40;31.30
37232;DHT22;23125;48.156;15.954;2023-03-23T10:20:54;31.50;30.90
37232;DHT22;23125;48.156;15.954;2023-03-23T10:28:56;31.60;30.90
37232;DHT22;23125;48.156;15.954;2023-03-23T10:31:31;31.70;30.40
37232;DHT22;23125;48.156;15.954;2023-03-23T10:34:04;31.70;29.90
37232;DHT22;23125;48.156;15.954;2023-03-23T10:39:53;31.80;29.70
37232;DHT22;23125;48.156;15.954;2023-03-23T10:42:31;31.80;29.50
37232;DHT22;23125;48.156;15.954;2023-03-23T10:45:00;31.90;29.30
37232;DHT22;23125;48.156;15.954;2023-03-23T10:47:27;31.80;29.00
37232;DHT22;23125;48.156;15.954;2023-03-23T10:50:02;31.90;29.00
37232;DHT22;23125;48.156;15.954;2023-03-23T10:52:42;31.90;28.70
37232;DHT22;23125;48.156;15.954;2023-03-23T10:55:20;31.80;28.50
37232;DHT22;23125;48.156;15.954;2023-03-23T10:58:12;31.70;28.30
37232;DHT22;23125;48.156;15.954;2023-03-23T11:00:44;31.60;28.30
37232;DHT22;23125;48.156;15.954;2023-03-23T11:05:44;31.20;28.10
37232;DHT22;23125;48.156;15.954;2023-03-23T11:08:18;31.10;28.30
37232;DHT22;23125;48.156;15.954;2023-03-23T11:10:53;30.90;28.10
37232;DHT22;23125;48.156;15.954;2023-03-23T11:13:22;30.70;28.00
37232;DHT22;23125;48.156;15.954;2023-03-23T11:15:49;30.40;27.70
37232;DHT22;23125;48.156;15.954;2023-03-23T11:18:21;30.10;27.50
37232;DHT22;23125;48.156;15.954;2023-03-23T11:20:53;29.90;27.90
37232;DHT22;23125;48.156;15.954;2023-03-23T11:26:12;29.60;27.90
37232;DHT22;23125;48.156;15.954;2023-03-23T11:29:16;29.50;27.90
37232;DHT22;23125;48.156;15.954;2023-03-23T11:31:45;29.40;28.00
37232;DHT22;23125;48.156;15.954;2023-03-23T11:34:17;29.40;28.20
37232;DHT22;23125;48.156;15.954;2023-03-23T11:36:49;29.30;28.00
37232;DHT22;23125;48.156;15.954;2023-03-23T11:39:25;29.20;27.80
37232;DHT22;23125;48.156;15.954;2023-03-23T11:41:52;29.20;27.90
37232;DHT22;23125;48.156;15.954;2023-03-23T11:44:24;29.00;27.60
37232;DHT22;23125;48.156;15.954;2023-03-23T11:47:28;28.90;27.70
37232;DHT22;23125;48.156;15.954;2023-03-23T11:50:19;28.90;27.80
37232;DHT22;23125;48.156;15.954;2023-03-23T11:58:15;28.60;27.70
37232;DHT22;23125;48.156;15.954;2023-03-23T12:01:11;28.50;27.60
37232;DHT22;23125;48.156;15.954;2023-03-23T12:14:54;28.20;27.60
37232;DHT22;23125;48.156;15.954;2023-03-23T12:23:44;27.90;27.80
37232;DHT22;23125;48.156;15.954;2023-03-23T12:26:20;27.80;27.50
37232;DHT22;23125;48.156;15.954;2023-03-23T12:29:03;27.70;27.50
37232;DHT22;23125;48.156;15.954;2023-03-23T12:43:12;27.40;27.40
37232;DHT22;23125;48.156;15.954;2023-03-23T12:48:45;27.30;27.80
37232;DHT22;23125;48.156;15.954;2023-03-23T12:51:36;27.30;27.40
37232;DHT22;23125;48.156;15.954;2023-03-23T12:59:49;27.00;27.30
37232;DHT22;23125;48.156;15.954;2023-03-23T13:02:36;26.90;27.30
37232;DHT22;23125;48.156;15.954;2023-03-23T13:05:27;26.80;27.40
37232;DHT22;23125;48.156;15.954;2023-03-23T13:07:59;26.80;27.50
37232;DHT22;23125;48.156;15.954;2023-03-23T13:10:29;26.70;27.40
37232;DHT22;23125;48.156;15.954;2023-03-23T13:12:58;26.70;27.50
37232;DHT22;23125;48.156;15.954;2023-03-23T13:23:28;26.70;27.70
37232;DHT22;23125;48.156;15.954;2023-03-23T13:26:01;26.70;27.60
37232;DHT22;23125;48.156;15.954;2023-03-23T13:28:55;26.80;27.80
37232;DHT22;23125;48.156;15.954;2023-03-23T13:34:11;26.80;27.50
37232;DHT22;23125;48.156;15.954;2023-03-23T13:36:41;26.80;27.40
37232;DHT22;23125;48.156;15.954;2023-03-23T13:39:21;26.70;27.50
37232;DHT22;23125;48.156;15.954;2023-03-23T13:42:17;26.70;27.50
37232;DHT22;23125;48.156;15.954;2023-03-23T13:47:38;26.60;27.40
37232;DHT22;23125;48.156;15.954;2023-03-23T14:03:02;26.60;27.80
37232;DHT22;23125;48.156;15.954;2023-03-23T14:10:56;26.70;27.80
37232;DHT22;23125;48.156;15.954;2023-03-23T14:16:19;26.60;27.70
37232;DHT22;23125;48.156;15.954;2023-03-23T14:18:58;26.60;27.70
37232;DHT22;23125;48.156;15.954;2023-03-23T14:21:34;26.70;27.80
37232;DHT22;23125;48.156;15.954;2023-03-23T14:24:08;26.70;27.90
37232;DHT22;23125;48.156;15.954;2023-03-23T14:26:35;26.70;27.80
37232;DHT22;23125;48.156;15.954;2023-03-23T14:29:03;26.70;27.90
37232;DHT22;23125;48.156;15.954;2023-03-23T14:31:30;26.70;27.80
37232;DHT22;23125;48.156;15.954;2023-03-23T14:34:00;26.70;27.80
37232;DHT22;23125;48.156;15.954;2023-03-23T14:36:29;26.60;27.80
37232;DHT22;23125;48.156;15.954;2023-03-23T14:39:19;26.60;27.80
37232;DHT22;23125;48.156;15.954;2023-03-23T14:41:47;26.60;27.80
37232;DHT22;23125;48.156;15.954;2023-03-23T14:44:21;26.50;27.80
37232;DHT22;23125;48.156;15.954;2023-03-23T14:46:48;26.50;27.80
37232;DHT22;23125;48.156;15.954;2023-03-23T14:49:21;26.40;27.90
37232;DHT22;23125;48.156;15.954;2023-03-23T14:51:51;26.40;27.90
37232;DHT22;23125;48.156;15.954;2023-03-23T14:54:28;26.40;27.90
37232;DHT22;23125;48.156;15.954;2023-03-23T14:56:55;26.30;27.90
37232;DHT22;23125;48.156;15.954;2023-03-23T14:59:21;26.20;27.90
37232;DHT22;23125;48.156;15.954;2023-03-23T15:01:50;26.20;27.90
37232;DHT22;23125;48.156;15.954;2023-03-23T15:04:22;26.10;28.10
37232;DHT22;23125;48.156;15.954;2023-03-23T15:07:00;26.10;28.10
37232;DHT22;23125;48.156;15.954;2023-03-23T15:09:27;26.00;28.10
37232;DHT22;23125;48.156;15.954;2023-03-23T15:11:59;25.90;28.10
37232;DHT22;23125;48.156;15.954;2023-03-23T15:14:30;25.90;28.40
37232;DHT22;23125;48.156;15.954;2023-03-23T15:16:59;25.90;28.40
37232;DHT22;23125;48.156;15.954;2023-03-23T15:19:32;25.80;28.40
37232;DHT22;23125;48.156;15.954;2023-03-23T15:22:13;25.80;28.50
37232;DHT22;23125;48.156;15.954;2023-03-23T15:24:41;25.80;28.60
37232;DHT22;23125;48.156;15.954;2023-03-23T15:27:18;25.80;28.70
37232;DHT22;23125;48.156;15.954;2023-03-23T15:29:57;25.70;28.60
37232;DHT22;23125;48.156;15.954;2023-03-23T15:32:36;25.70;28.70
37232;DHT22;23125;48.156;15.954;2023-03-23T15:35:11;25.70;28.70
37232;DHT22;23125;48.156;15.954;2023-03-23T15:37:52;25.60;28.70
37232;DHT22;23125;48.156;15.954;2023-03-23T15:40:22;25.60;28.70
37232;DHT22;23125;48.156;15.954;2023-03-23T15:42:50;25.50;28.80
37232;DHT22;23125;48.156;15.954;2023-03-23T15:45:34;25.50;28.90
37232;DHT22;23125;48.156;15.954;2023-03-23T15:48:12;25.50;28.90
37232;DHT22;23125;48.156;15.954;2023-03-23T15:50:40;25.50;29.00
37232;DHT22;23125;48.156;15.954;2023-03-23T15:53:24;25.50;29.10
37232;DHT22;23125;48.156;15.954;2023-03-23T15:55:51;25.50;29.20
37232;DHT22;23125;48.156;15.954;2023-03-23T15:58:17;25.50;29.20
37232;DHT22;23125;48.156;15.954;2023-03-23T16:00:44;25.50;29.30
37232;DHT22;23125;48.156;15.954;2023-03-23T16:03:15;25.40;29.30
37232;DHT22;23125;48.156;15.954;2023-03-23T16:05:42;25.40;29.30
37232;DHT22;23125;48.156;15.954;2023-03-23T16:08:10;25.40;29.30
37232;DHT22;23125;48.156;15.954;2023-03-23T16:10:37;25.40;29.30
37232;DHT22;23125;48.156;15.954;2023-03-23T16:13:03;25.40;29.40
37232;DHT22;23125;48.156;15.954;2023-03-23T16:15:30;25.30;29.60
37232;DHT22;23125;48.156;15.954;2023-03-23T16:17:56;25.30;29.70
37232;DHT22;23125;48.156;15.954;2023-03-23T16:20:23;25.20;29.80
37232;DHT22;23125;48.156;15.954;2023-03-23T16:22:50;25.20;30.00
37232;DHT22;23125;48.156;15.954;2023-03-23T16:25:17;25.10;30.00
37232;DHT22;23125;48.156;15.954;2023-03-23T16:27:44;25.10;30.30
37232;DHT22;23125;48.156;15.954;2023-03-23T16:30:18;25.10;30.50
37232;DHT22;23125;48.156;15.954;2023-03-23T16:32:45;25.10;30.60
37232;DHT22;23125;48.156;15.954;2023-03-23T16:35:12;25.00;30.80
37232;DHT22;23125;48.156;15.954;2023-03-23T16:37:42;24.90;31.40
37232;DHT22;23125;48.156;15.954;2023-03-23T16:40:12;24.90;31.00
37232;DHT22;23125;48.156;15.954;2023-03-23T16:42:38;24.80;31.30
37232;DHT22;23125;48.156;15.954;2023-03-23T16:45:04;24.70;31.20
37232;DHT22;23125;48.156;15.954;2023-03-23T16:47:31;24.60;31.30
37232;DHT22;23125;48.156;15.954;2023-03-23T16:49:57;24.40;31.40
37232;DHT22;23125;48.156;15.954;2023-03-23T16:52:23;24.40;31.70
37232;DHT22;23125;48.156;15.954;2023-03-23T16:54:49;24.20;31.80
37232;DHT22;23125;48.156;15.954;2023-03-23T16:57:15;24.10;31.80
37232;DHT22;23125;48.156;15.954;2023-03-23T16:59:41;24.00;31.90
37232;DHT22;23125;48.156;15.954;2023-03-23T17:02:10;23.80;32.10
37232;DHT22;23125;48.156;15.954;2023-03-23T17:04:36;23.70;32.30
37232;DHT22;23125;48.156;15.954;2023-03-23T17:07:03;23.60;32.50
37232;DHT22;23125;48.156;15.954;2023-03-23T17:09:29;23.40;32.70
37232;DHT22;23125;48.156;15.954;2023-03-23T17:11:54;23.20;33.00
37232;DHT22;23125;48.156;15.954;2023-03-23T17:14:21;23.10;33.30
37232;DHT22;23125;48.156;15.954;2023-03-23T17:16:46;22.90;33.50
37232;DHT22;23125;48.156;15.954;2023-03-23T17:19:13;22.80;33.80
37232;DHT22;23125;48.156;15.954;2023-03-23T17:21:39;22.70;34.00
37232;DHT22;23125;48.156;15.954;2023-03-23T17:24:06;22.60;35.00
37232;DHT22;23125;48.156;15.954;2023-03-23T17:26:32;22.60;34.60
37232;DHT22;23125;48.156;15.954;2023-03-23T17:28:58;22.50;34.90
37232;DHT22;23125;48.156;15.954;2023-03-23T17:31:24;22.40;34.80
37232;DHT22;23125;48.156;15.954;2023-03-23T17:33:50;22.30;34.90